Time,TemperatureF,DewpointF,PressureIn,WindDirection,WindDirectionDegrees,WindSpeedMPH,WindSpeedGustMPH,Humidity,HourlyPrecipIn,Conditions,Clouds,dailyrainin,SolarRadiationWatts/m^2,SoftwareType,DateUTC
2013-01-09 00:02:00,41.0,39.2,30.16,North,355,0.0,1.0,93,0.00,,,0.00,0.0,meteohub,2013-01-09 08:02:00,
2013-01-09 00:07:00,41.0,39.4,30.16,North,355,0.0,1.0,94,0.00,,,0.00,0.0,meteohub,2013-01-09 08:07:00,
2013-01-09 00:12:00,41.2,39.6,30.17,North,355,0.0,2.0,94,0.00,,,0.00,0.0,meteohub,2013-01-09 08:12:00,
2013-01-09 00:17:00,41.2,39.6,30.17,North,355,1.0,2.0,94,0.00,,,0.00,0.0,meteohub,2013-01-09 08:17:00,
2013-01-09 00:22:00,41.2,39.6,30.17,North,355,1.0,2.0,94,0.00,,,0.00,0.0,meteohub,2013-01-09 08:22:00,
2013-01-09 00:27:00,41.2,39.4,30.17,North,355,0.0,3.0,93,0.00,,,0.00,0.0,meteohub,2013-01-09 08:27:00,
2013-01-09 00:32:00,41.0,39.2,30.16,North,355,3.0,3.0,93,0.00,,,0.00,0.0,meteohub,2013-01-09 08:32:00,
2013-01-09 00:37:00,40.6,38.8,30.16,North,0,2.0,3.0,93,0.00,,,0.00,0.0,meteohub,2013-01-09 08:37:00,
2013-01-09 00:42:00,40.5,38.8,30.16,NNW,344,0.0,4.0,93,0.00,,,0.00,0.0,meteohub,2013-01-09 08:42:00,
2013-01-09 00:47:00,40.3,38.7,30.16,NNW,344,1.0,4.0,93,0.00,,,0.00,0.0,meteohub,2013-01-09 08:47:00,
2013-01-09 00:52:00,40.3,38.7,30.15,NNW,348,3.0,4.0,93,0.00,,,0.00,0.0,meteohub,2013-01-09 08:52:00,
2013-01-09 00:57:00,40.3,38.7,30.16,NNW,348,0.0,4.0,93,0.00,,,0.00,0.0,meteohub,2013-01-09 08:57:00,
2013-01-09 01:02:00,40.1,38.5,30.16,NNW,348,0.0,3.0,93,0.00,,,0.00,0.0,meteohub,2013-01-09 09:02:00,
2013-01-09 01:07:00,40.1,38.5,30.15,NNW,348,0.0,3.0,93,0.00,,,0.00,0.0,meteohub,2013-01-09 09:07:00,
2013-01-09 01:12:00,40.1,38.5,30.16,NNW,348,0.0,3.0,93,0.00,,,0.00,0.0,meteohub,2013-01-09 09:12:00,
2013-01-09 01:17:00,40.1,38.5,30.15,NNW,348,0.0,1.0,93,0.00,,,0.00,0.0,meteohub,2013-01-09 09:17:00,
2013-01-09 01:22:00,40.1,38.5,30.16,NNW,348,1.0,0.0,93,0.00,,,0.00,0.0,meteohub,2013-01-09 09:22:00,
2013-01-09 01:27:00,40.1,38.5,30.15,NNW,348,0.0,2.0,93,0.00,,,0.00,0.0,meteohub,2013-01-09 09:27:00,
2013-01-09 01:32:00,39.9,38.3,30.15,NNW,348,0.0,2.0,93,0.00,,,0.00,0.0,meteohub,2013-01-09 09:32:00,
2013-01-09 01:37:00,39.7,38.1,30.15,NNW,348,0.0,2.0,93,0.00,,,0.00,0.0,meteohub,2013-01-09 09:37:00,
2013-01-09 01:42:00,39.6,37.9,30.15,NNW,348,0.0,1.0,93,0.00,,,0.00,0.0,meteohub,2013-01-09 09:42:00,
2013-01-09 01:47:00,39.6,37.9,30.15,NNW,348,0.0,0.0,93,0.00,,,0.00,0.0,meteohub,2013-01-09 09:47:00,
2013-01-09 01:52:00,39.4,37.8,30.16,NNW,348,0.0,0.0,93,0.00,,,0.00,0.0,meteohub,2013-01-09 09:52:00,
2013-01-09 01:57:00,39.4,37.8,30.15,NNW,348,0.0,0.0,93,0.00,,,0.00,0.0,meteohub,2013-01-09 09:57:00,
2013-01-09 02:02:00,39.2,37.6,30.15,NNW,348,1.0,0.0,93,0.00,,,0.00,0.0,meteohub,2013-01-09 10:02:00,
2013-01-09 02:07:00,39.2,37.6,30.15,NNW,346,2.0,2.0,93,0.00,,,0.00,0.0,meteohub,2013-01-09 10:07:00,
2013-01-09 02:12:00,39.0,37.4,30.15,NNW,346,0.0,3.0,93,0.00,,,0.00,0.0,meteohub,2013-01-09 10:12:00,
2013-01-09 02:17:00,39.2,37.8,30.15,NNW,346,1.0,3.0,94,0.00,,,0.00,0.0,meteohub,2013-01-09 10:17:00,
2013-01-09 02:22:00,38.8,37.2,30.14,NNW,346,0.0,3.0,93,0.00,,,0.00,0.0,meteohub,2013-01-09 10:22:00,
2013-01-09 02:27:00,38.8,37.0,30.14,NNW,346,0.0,2.0,93,0.00,,,0.00,0.0,meteohub,2013-01-09 10:27:00,
2013-01-09 02:32:00,38.8,37.0,30.14,NNW,346,0.0,2.0,93,0.00,,,0.00,0.0,meteohub,2013-01-09 10:32:00,
2013-01-09 02:37:00,38.7,36.9,30.14,NNE,28,2.0,2.0,93,0.00,,,0.00,0.0,meteohub,2013-01-09 10:37:00,
2013-01-09 02:42:00,38.7,36.9,30.14,NNE,28,0.0,3.0,93,0.00,,,0.00,0.0,meteohub,2013-01-09 10:42:00,
2013-01-09 02:47:00,38.5,36.7,30.14,North,349,1.0,3.0,93,0.00,,,0.00,0.0,meteohub,2013-01-09 10:47:00,
2013-01-09 02:52:00,38.5,36.7,30.15,North,349,1.0,3.0,93,0.00,,,0.00,0.0,meteohub,2013-01-09 10:52:00,
2013-01-09 02:57:00,38.5,36.7,30.13,North,355,1.0,3.0,93,0.00,,,0.00,0.0,meteohub,2013-01-09 10:57:00,
2013-01-09 03:02:00,38.5,36.7,30.13,NNW,342,3.0,5.0,93,0.00,,,0.00,0.0,meteohub,2013-01-09 11:02:00,
2013-01-09 03:07:00,38.5,36.7,30.13,West,281,0.0,5.0,93,0.00,,,0.00,0.0,meteohub,2013-01-09 11:07:00,
2013-01-09 03:12:00,38.7,37.0,30.13,WNW,293,0.0,5.0,94,0.00,,,0.00,0.0,meteohub,2013-01-09 11:12:00,
2013-01-09 03:17:00,38.8,37.4,30.14,WNW,293,0.0,4.0,94,0.00,,,0.00,0.0,meteohub,2013-01-09 11:17:00,
2013-01-09 03:22:00,38.8,37.4,30.12,WNW,293,1.0,3.0,94,0.00,,,0.00,0.0,meteohub,2013-01-09 11:22:00,
2013-01-09 03:27:00,38.8,37.4,30.12,WNW,294,0.0,3.0,94,0.00,,,0.00,0.0,meteohub,2013-01-09 11:27:00,
2013-01-09 03:32:00,39.0,37.6,30.12,WNW,294,3.0,3.0,94,0.00,,,0.00,0.0,meteohub,2013-01-09 11:32:00,
2013-01-09 03:37:00,39.2,38.1,30.12,West,273,0.0,5.0,95,0.00,,,0.00,0.0,meteohub,2013-01-09 11:37:00,
2013-01-09 03:42:00,39.2,37.8,30.12,West,273,0.0,5.0,94,0.00,,,0.00,0.0,meteohub,2013-01-09 11:42:00,
2013-01-09 03:47:00,39.0,37.6,30.14,West,272,2.0,5.0,94,0.00,,,0.00,0.0,meteohub,2013-01-09 11:47:00,
2013-01-09 03:52:00,38.8,37.4,30.13,NE,40,1.0,3.0,94,0.00,,,0.00,0.0,meteohub,2013-01-09 11:52:00,
2013-01-09 03:57:00,38.8,37.2,30.12,NE,40,0.0,3.0,94,0.00,,,0.00,0.0,meteohub,2013-01-09 11:57:00,
2013-01-09 04:02:00,38.7,37.0,30.13,North,11,0.0,3.0,94,0.00,,,0.00,0.0,meteohub,2013-01-09 12:02:00,
2013-01-09 04:07:00,38.5,36.9,30.13,NNW,338,1.0,3.0,94,0.00,,,0.00,0.0,meteohub,2013-01-09 12:07:00,
2013-01-09 04:12:00,38.7,37.0,30.13,North,355,0.0,2.0,94,0.00,,,0.00,0.0,meteohub,2013-01-09 12:12:00,
2013-01-09 04:17:00,38.7,37.0,30.13,North,355,0.0,3.0,94,0.00,,,0.00,0.0,meteohub,2013-01-09 12:17:00,
2013-01-09 04:22:00,38.8,37.6,30.12,NNW,347,2.0,3.0,95,0.00,,,0.00,0.0,meteohub,2013-01-09 12:22:00,
2013-01-09 04:27:00,38.8,37.8,30.12,NNW,346,3.0,3.0,95,0.00,,,0.00,0.0,meteohub,2013-01-09 12:27:00,
2013-01-09 04:32:00,39.0,37.9,30.13,WNW,284,1.0,4.0,95,0.00,,,0.00,0.0,meteohub,2013-01-09 12:32:00,
2013-01-09 04:37:00,39.4,38.3,30.13,West,277,0.0,5.0,95,0.00,,,0.00,0.0,meteohub,2013-01-09 12:37:00,
2013-01-09 04:43:00,39.6,38.5,30.14,West,277,0.0,5.0,95,0.00,,,0.00,0.0,meteohub,2013-01-09 12:43:00,
2013-01-09 04:48:00,40.3,39.0,30.13,NW,322,2.0,5.0,95,0.00,,,0.00,0.0,meteohub,2013-01-09 12:48:00,
2013-01-09 04:53:00,40.5,39.2,30.13,NNW,345,0.0,3.0,95,0.00,,,0.00,0.0,meteohub,2013-01-09 12:53:00,
2013-01-09 04:58:00,40.8,39.6,30.13,NNW,345,2.0,3.0,95,0.00,,,0.00,0.0,meteohub,2013-01-09 12:58:00,
2013-01-09 05:03:00,40.8,39.6,30.13,NNW,345,0.0,3.0,95,0.00,,,0.00,0.0,meteohub,2013-01-09 13:03:00,
2013-01-09 05:08:00,41.0,39.7,30.13,NNW,345,2.0,3.0,95,0.00,,,0.00,0.0,meteohub,2013-01-09 13:08:00,
2013-01-09 05:13:00,41.0,39.7,30.12,NNW,346,1.0,2.0,95,0.00,,,0.00,0.0,meteohub,2013-01-09 13:13:00,
2013-01-09 05:18:00,41.0,39.7,30.12,NNW,346,0.0,3.0,95,0.00,,,0.00,0.0,meteohub,2013-01-09 13:18:00,
2013-01-09 05:23:00,41.0,39.7,30.12,NNW,344,4.0,4.0,95,0.00,,,0.00,0.0,meteohub,2013-01-09 13:23:00,
2013-01-09 05:28:00,40.8,39.6,30.12,NNW,344,2.0,3.0,95,0.00,,,0.00,0.0,meteohub,2013-01-09 13:28:00,
2013-01-09 05:33:00,40.8,39.6,30.12,NNW,348,3.0,6.0,95,0.00,,,0.00,0.0,meteohub,2013-01-09 13:33:00,
2013-01-09 05:38:00,40.8,39.6,30.11,NNW,344,0.0,6.0,95,0.00,,,0.00,0.0,meteohub,2013-01-09 13:38:00,
2013-01-09 05:44:00,40.6,39.4,30.12,NNW,344,0.0,5.0,95,0.00,,,0.00,0.0,meteohub,2013-01-09 13:44:00,
2013-01-09 05:49:00,40.6,39.4,30.11,NNW,344,0.0,4.0,95,0.00,,,0.00,0.0,meteohub,2013-01-09 13:49:00,
2013-01-09 05:54:00,40.5,39.2,30.11,NNW,344,0.0,4.0,95,0.00,,,0.00,0.0,meteohub,2013-01-09 13:54:00,
2013-01-09 05:59:00,40.5,39.2,30.11,NNW,344,1.0,2.0,95,0.00,,,0.00,0.0,meteohub,2013-01-09 13:59:00,
2013-01-09 06:04:00,40.5,39.2,30.12,NNW,344,0.0,2.0,95,0.00,,,0.00,0.0,meteohub,2013-01-09 14:04:00,
2013-01-09 06:09:00,40.3,39.0,30.12,NNW,344,0.0,2.0,95,0.00,,,0.00,0.0,meteohub,2013-01-09 14:09:00,
2013-01-09 06:14:00,40.3,39.0,30.12,NNW,344,0.0,2.0,95,0.00,,,0.00,0.0,meteohub,2013-01-09 14:14:00,
2013-01-09 06:19:00,40.1,38.8,30.11,NNW,344,0.0,1.0,95,0.00,,,0.00,0.0,meteohub,2013-01-09 14:19:00,
2013-01-09 06:24:00,39.9,38.8,30.11,NNW,344,0.0,1.0,95,0.00,,,0.00,0.0,meteohub,2013-01-09 14:24:00,
2013-01-09 06:29:00,39.9,38.8,30.11,NNW,344,0.0,0.0,95,0.00,,,0.00,0.0,meteohub,2013-01-09 14:29:00,
2013-01-09 06:34:00,39.6,38.5,30.11,NNW,342,0.0,0.0,95,0.00,,,0.00,0.0,meteohub,2013-01-09 14:34:00,
2013-01-09 06:39:00,39.6,38.5,30.11,North,355,2.0,3.0,95,0.00,,,0.00,0.0,meteohub,2013-01-09 14:39:00,
2013-01-09 06:44:00,39.4,38.3,30.11,NNE,32,0.0,3.0,95,0.00,,,0.00,0.0,meteohub,2013-01-09 14:44:00,
2013-01-09 06:49:00,39.4,38.3,30.12,NNE,32,0.0,3.0,95,0.00,,,0.00,0.0,meteohub,2013-01-09 14:49:00,
2013-01-09 06:54:00,39.4,38.3,30.11,NNE,32,0.0,2.0,95,0.00,,,0.00,0.0,meteohub,2013-01-09 14:54:00,
2013-01-09 07:00:00,39.4,38.3,30.11,NNE,32,1.0,2.0,95,0.00,,,0.00,0.0,meteohub,2013-01-09 15:00:00,
2013-01-09 07:05:00,39.4,38.3,30.11,North,355,0.0,2.0,95,0.00,,,0.00,0.0,meteohub,2013-01-09 15:05:00,
2013-01-09 07:10:00,39.2,38.1,30.11,North,355,0.0,3.0,95,0.00,,,0.00,0.0,meteohub,2013-01-09 15:10:00,
2013-01-09 07:15:00,39.0,37.9,30.12,NW,324,3.0,3.0,95,0.00,,,0.00,0.0,meteohub,2013-01-09 15:15:00,
2013-01-09 07:20:00,39.0,37.9,30.11,North,355,2.0,3.0,95,0.00,,,0.00,0.0,meteohub,2013-01-09 15:20:00,
2013-01-09 07:25:00,39.0,37.9,30.12,North,355,0.0,3.0,95,0.00,,,0.00,0.0,meteohub,2013-01-09 15:25:00,
2013-01-09 07:30:00,39.0,37.9,30.12,North,355,0.0,3.0,95,0.00,,,0.00,7.0,meteohub,2013-01-09 15:30:00,
2013-01-09 07:35:00,38.8,37.8,30.12,North,355,0.0,2.0,95,0.00,,,0.00,11.0,meteohub,2013-01-09 15:35:00,
2013-01-09 07:40:00,38.8,37.8,30.11,North,355,0.0,1.0,95,0.00,,,0.00,12.0,meteohub,2013-01-09 15:40:00,
2013-01-09 07:45:00,38.8,37.8,30.12,North,355,0.0,0.0,95,0.00,,,0.00,16.0,meteohub,2013-01-09 15:45:00,
2013-01-09 07:51:00,38.8,37.8,30.11,North,355,0.0,0.0,95,0.00,,,0.00,21.0,meteohub,2013-01-09 15:51:00,
2013-01-09 07:56:00,38.8,37.8,30.12,North,355,0.0,0.0,95,0.00,,,0.00,23.0,meteohub,2013-01-09 15:56:00,
2013-01-09 08:01:00,38.8,37.8,30.11,North,355,0.0,0.0,95,0.00,,,0.00,28.0,meteohub,2013-01-09 16:01:00,
2013-01-09 08:06:00,38.8,37.8,30.11,North,355,1.0,0.0,95,0.00,,,0.00,32.0,meteohub,2013-01-09 16:06:00,
2013-01-09 08:11:00,39.0,37.9,30.12,SSW,198,3.0,3.0,95,0.00,,,0.00,32.0,meteohub,2013-01-09 16:11:00,
2013-01-09 08:16:00,39.0,38.1,30.12,SSE,158,0.0,5.0,96,0.00,,,0.00,37.0,meteohub,2013-01-09 16:16:00,
2013-01-09 08:21:00,39.2,38.3,30.12,SSE,157,1.0,5.0,96,0.00,,,0.00,42.0,meteohub,2013-01-09 16:21:00,
2013-01-09 08:26:00,39.2,38.3,30.12,SSE,159,1.0,5.0,96,0.00,,,0.00,42.0,meteohub,2013-01-09 16:26:00,
2013-01-09 08:31:00,39.4,38.5,30.12,SSE,159,1.0,4.0,96,0.00,,,0.00,47.0,meteohub,2013-01-09 16:31:00,
2013-01-09 08:37:00,39.4,38.5,30.12,SSE,156,0.0,3.0,96,0.00,,,0.00,54.0,meteohub,2013-01-09 16:37:00,
2013-01-09 08:42:00,39.6,38.7,30.12,SSE,156,0.0,3.0,96,0.00,,,0.00,65.0,meteohub,2013-01-09 16:42:00,
2013-01-09 08:47:00,39.6,38.7,30.12,SSE,156,0.0,3.0,96,0.00,,,0.00,74.0,meteohub,2013-01-09 16:47:00,
2013-01-09 08:52:00,39.7,38.8,30.12,SSE,156,0.0,2.0,96,0.00,,,0.00,79.0,meteohub,2013-01-09 16:52:00,
2013-01-09 08:57:00,40.1,39.0,30.12,SSE,156,0.0,1.0,96,0.00,,,0.00,88.0,meteohub,2013-01-09 16:57:00,
2013-01-09 09:02:00,40.1,39.0,30.12,SSE,156,0.0,1.0,96,0.00,,,0.00,90.0,meteohub,2013-01-09 17:02:00,
2013-01-09 09:07:00,40.3,39.2,30.12,SSE,157,0.0,0.0,96,0.00,,,0.00,95.0,meteohub,2013-01-09 17:07:00,
2013-01-09 09:12:00,40.6,39.6,30.12,SSE,157,0.0,2.0,96,0.00,,,0.00,107.0,meteohub,2013-01-09 17:12:00,
2013-01-09 09:17:00,40.8,39.7,30.11,North,350,1.0,3.0,96,0.00,,,0.00,121.0,meteohub,2013-01-09 17:17:00,
2013-01-09 09:22:00,41.0,39.9,30.11,North,350,1.0,3.0,96,0.00,,,0.00,141.0,meteohub,2013-01-09 17:22:00,
2013-01-09 09:27:00,41.2,40.1,30.12,North,349,0.0,3.0,96,0.00,,,0.00,171.0,meteohub,2013-01-09 17:27:00,
2013-01-09 09:32:00,41.5,40.5,30.12,NNW,340,0.0,3.0,96,0.00,,,0.00,188.0,meteohub,2013-01-09 17:32:00,
2013-01-09 09:37:00,41.9,40.8,30.11,NNW,340,2.0,4.0,96,0.00,,,0.00,197.0,meteohub,2013-01-09 17:37:00,
2013-01-09 09:42:00,42.3,41.2,30.11,NNW,340,1.0,4.0,96,0.00,,,0.00,178.0,meteohub,2013-01-09 17:42:00,
2013-01-09 09:47:00,42.4,41.9,30.11,NNW,340,0.0,3.0,97,0.00,,,0.00,153.0,meteohub,2013-01-09 17:47:00,
2013-01-09 09:52:00,42.8,42.3,30.11,NNW,340,0.0,3.0,97,0.00,,,0.00,213.0,meteohub,2013-01-09 17:52:00,
2013-01-09 09:57:00,43.2,42.3,30.10,NNW,340,0.0,3.0,96,0.00,,,0.00,241.0,meteohub,2013-01-09 17:57:00,
2013-01-09 10:02:00,43.5,42.8,30.10,NNW,340,0.0,1.0,97,0.00,,,0.00,241.0,meteohub,2013-01-09 18:02:00,
2013-01-09 10:07:00,43.7,43.0,30.10,NNW,340,1.0,2.0,97,0.00,,,0.00,285.0,meteohub,2013-01-09 18:07:00,
2013-01-09 10:12:00,44.4,43.7,30.10,ESE,111,1.0,2.0,97,0.00,,,0.00,285.0,meteohub,2013-01-09 18:12:00,
2013-01-09 10:17:00,45.1,44.4,30.09,ESE,111,0.0,3.0,97,0.00,,,0.00,329.0,meteohub,2013-01-09 18:17:00,
2013-01-09 10:22:00,45.5,44.8,30.09,ESE,111,0.0,3.0,97,0.00,,,0.00,288.0,meteohub,2013-01-09 18:22:00,
2013-01-09 10:27:00,45.7,45.1,30.10,ESE,111,0.0,3.0,97,0.00,,,0.00,304.0,meteohub,2013-01-09 18:27:00,
2013-01-09 10:32:00,46.0,45.5,30.09,ESE,111,0.0,3.0,97,0.00,,,0.00,294.0,meteohub,2013-01-09 18:32:00,
2013-01-09 10:37:00,46.4,45.7,30.09,ESE,111,0.0,3.0,97,0.00,,,0.00,265.0,meteohub,2013-01-09 18:37:00,
2013-01-09 10:41:00,46.8,46.0,30.09,ESE,111,1.0,2.0,97,0.00,,,0.00,302.0,meteohub,2013-01-09 18:41:00,
2013-01-09 10:42:00,46.8,46.0,30.09,ESE,111,0.0,2.0,97,0.00,,,0.00,292.0,meteohub,2013-01-09 18:42:00,
2013-01-09 10:44:00,46.8,46.0,30.09,ESE,111,0.0,2.0,97,0.00,,,0.00,292.0,meteohub,2013-01-09 18:44:00,
2013-01-09 10:48:00,46.9,46.2,30.09,ESE,111,0.0,2.0,97,0.00,,,0.00,281.0,meteohub,2013-01-09 18:48:00,
2013-01-09 10:49:00,46.9,46.2,30.09,ESE,111,0.0,2.0,97,0.00,,,0.00,283.0,meteohub,2013-01-09 18:49:00,
2013-01-09 10:50:00,47.1,46.4,30.09,ESE,111,1.0,2.0,97,0.00,,,0.00,290.0,meteohub,2013-01-09 18:50:00,
2013-01-09 10:55:00,47.5,46.8,30.09,ESE,111,0.0,2.0,97,0.00,,,0.00,213.0,meteohub,2013-01-09 18:55:00,
2013-01-09 11:00:00,47.7,46.9,30.09,ESE,111,0.0,3.0,97,0.00,,,0.00,165.0,meteohub,2013-01-09 19:00:00,
2013-01-09 11:05:00,48.0,47.3,30.08,ESE,111,2.0,3.0,97,0.00,,,0.00,190.0,meteohub,2013-01-09 19:05:00,
2013-01-09 11:10:00,48.0,47.3,30.08,ESE,111,0.0,3.0,97,0.00,,,0.00,199.0,meteohub,2013-01-09 19:10:00,
2013-01-09 11:15:00,48.4,47.7,30.08,SE,134,0.0,3.0,97,0.00,,,0.00,190.0,meteohub,2013-01-09 19:15:00,
2013-01-09 11:20:00,48.6,47.5,30.07,ENE,68,1.0,3.0,96,0.00,,,0.00,248.0,meteohub,2013-01-09 19:20:00,
2013-01-09 11:25:00,48.7,47.7,30.06,ENE,65,0.0,3.0,96,0.00,,,0.00,214.0,meteohub,2013-01-09 19:25:00,
2013-01-09 11:30:00,49.1,48.0,30.06,SSW,193,2.0,3.0,96,0.00,,,0.00,221.0,meteohub,2013-01-09 19:30:00,
2013-01-09 11:35:00,49.3,48.4,30.06,SSW,203,4.0,5.0,96,0.00,,,0.00,211.0,meteohub,2013-01-09 19:35:00,
2013-01-09 11:40:00,49.6,48.7,30.05,South,178,4.0,5.0,96,0.00,,,0.00,192.0,meteohub,2013-01-09 19:40:00,
2013-01-09 11:45:00,49.8,48.9,30.05,SW,219,7.0,7.0,96,0.00,,,0.00,206.0,meteohub,2013-01-09 19:45:00,
2013-01-09 11:50:00,50.0,48.7,30.05,SSW,210,4.0,7.0,95,0.00,,,0.00,148.0,meteohub,2013-01-09 19:50:00,
2013-01-09 11:55:00,50.2,48.9,30.05,South,173,0.0,7.0,95,0.00,,,0.00,162.0,meteohub,2013-01-09 19:55:00,
2013-01-09 12:00:00,50.2,48.7,30.05,SSW,198,2.0,8.0,94,0.00,,,0.00,160.0,meteohub,2013-01-09 20:00:00,
2013-01-09 12:06:00,50.4,48.6,30.04,WSW,237,1.0,8.0,93,0.00,,,0.00,209.0,meteohub,2013-01-09 20:06:00,
2013-01-09 12:11:00,50.4,48.6,30.04,SW,235,5.0,9.0,93,0.00,,,0.00,200.0,meteohub,2013-01-09 20:11:00,
2013-01-09 12:16:00,50.5,48.6,30.04,SW,214,1.0,10.0,92,0.00,,,0.00,116.0,meteohub,2013-01-09 20:16:00,
2013-01-09 12:21:00,50.7,48.4,30.04,SSW,209,3.0,10.0,91,0.00,,,0.00,104.0,meteohub,2013-01-09 20:21:00,
2013-01-09 12:26:00,50.7,48.0,30.04,SSW,211,5.0,8.0,90,0.00,,,0.00,86.0,meteohub,2013-01-09 20:26:00,
2013-01-09 12:31:00,50.7,48.0,30.04,WSW,256,3.0,8.0,90,0.00,,,0.00,109.0,meteohub,2013-01-09 20:31:00,
2013-01-09 12:36:00,50.7,47.8,30.04,West,276,3.0,6.0,89,0.00,,,0.00,90.0,meteohub,2013-01-09 20:36:00,
2013-01-09 12:41:00,50.7,47.8,30.04,West,271,6.0,6.0,89,0.00,,,0.00,127.0,meteohub,2013-01-09 20:41:00,
2013-01-09 12:46:00,50.7,47.8,30.03,West,264,2.0,6.0,89,0.00,,,0.00,102.0,meteohub,2013-01-09 20:46:00,
2013-01-09 12:51:00,50.5,47.7,30.03,SSW,203,5.0,6.0,89,0.00,,,0.00,111.0,meteohub,2013-01-09 20:51:00,
2013-01-09 12:56:00,50.7,47.5,30.02,SW,218,3.0,6.0,88,0.00,,,0.00,90.0,meteohub,2013-01-09 20:56:00,
2013-01-09 13:01:00,50.7,47.5,30.03,SSW,197,0.0,5.0,88,0.00,,,0.00,100.0,meteohub,2013-01-09 21:01:00,
2013-01-09 13:06:00,50.7,47.8,30.02,SSW,197,0.0,5.0,89,0.00,,,0.00,134.0,meteohub,2013-01-09 21:06:00,
2013-01-09 13:11:00,50.7,47.8,30.02,WSW,242,1.0,4.0,89,0.00,,,0.00,127.0,meteohub,2013-01-09 21:11:00,
2013-01-09 13:16:00,50.9,47.7,30.02,SW,229,2.0,4.0,88,0.00,,,0.00,81.0,meteohub,2013-01-09 21:16:00,
2013-01-09 13:21:00,51.1,47.8,30.02,SW,229,0.0,4.0,88,0.00,,,0.00,67.0,meteohub,2013-01-09 21:21:00,
2013-01-09 13:27:00,51.1,47.8,30.03,West,260,3.0,4.0,88,0.00,,,0.00,47.0,meteohub,2013-01-09 21:27:00,
2013-01-09 13:32:00,51.1,47.5,30.02,WSW,256,0.0,4.0,87,0.00,,,0.00,81.0,meteohub,2013-01-09 21:32:00,
2013-01-09 13:37:00,51.3,47.7,30.03,SW,229,3.0,5.0,87,0.00,,,0.00,63.0,meteohub,2013-01-09 21:37:00,
2013-01-09 13:53:00,50.6,47.0,30.01,SW,218,3.0,6.0,87,0.00,,,0.00,113,weatherlink.com 1.10,2013-01-09 21:53:00,
2013-01-09 14:01:00,50.8,47.0,30.00,SW,219,2.0,7.0,87,0.00,,,0.00,211,weatherlink.com 1.10,2013-01-09 22:01:00,
2013-01-09 19:41:00,46.4,39.9,30.03,West,270,5.0,-999.0,77,-99.99,,,0.00,0.0,meteohub,2013-01-10 03:41:00,
2013-01-09 19:47:00,46.4,39.6,30.03,NW,304,2.0,5.0,76,0.00,,,0.02,0.0,meteohub,2013-01-10 03:47:00,
2013-01-09 19:52:00,46.4,39.6,30.03,WSW,240,3.0,5.0,76,0.00,,,0.02,0.0,meteohub,2013-01-10 03:52:00,
2013-01-09 19:57:00,46.4,39.6,30.03,WSW,245,0.0,4.0,76,0.00,,,0.02,0.0,meteohub,2013-01-10 03:57:00,
2013-01-09 20:02:00,46.4,39.4,30.04,WSW,257,1.0,5.0,75,0.00,,,0.02,0.0,meteohub,2013-01-10 04:02:00,
2013-01-09 20:07:00,46.2,39.2,30.04,WSW,242,3.0,7.0,75,0.00,,,0.02,0.0,meteohub,2013-01-10 04:07:00,
2013-01-09 20:12:00,46.0,39.0,30.04,WNW,286,0.0,7.0,75,0.00,,,0.02,0.0,meteohub,2013-01-10 04:12:00,
2013-01-09 20:17:00,46.0,38.8,30.04,NW,313,0.0,7.0,74,0.00,,,0.02,0.0,meteohub,2013-01-10 04:17:00,
2013-01-09 20:22:00,45.9,38.7,30.04,NW,316,0.0,7.0,74,0.00,,,0.02,0.0,meteohub,2013-01-10 04:22:00,
2013-01-09 20:27:00,45.7,38.5,30.04,NW,308,0.0,7.0,74,0.00,,,0.02,0.0,meteohub,2013-01-10 04:27:00,
2013-01-09 20:32:00,45.7,38.7,30.04,WNW,290,2.0,5.0,75,0.00,,,0.02,0.0,meteohub,2013-01-10 04:32:00,
2013-01-09 20:37:00,45.5,38.5,30.04,SW,222,2.0,3.0,75,0.00,,,0.02,0.0,meteohub,2013-01-10 04:37:00,
2013-01-09 20:42:00,45.3,38.3,30.04,WSW,240,1.0,4.0,75,0.00,,,0.02,0.0,meteohub,2013-01-10 04:42:00,
2013-01-09 20:47:00,45.1,38.5,30.04,WNW,286,2.0,4.0,76,0.00,,,0.02,0.0,meteohub,2013-01-10 04:47:00,
2013-01-09 20:52:00,45.1,38.5,30.04,West,267,4.0,6.0,76,0.00,,,0.02,0.0,meteohub,2013-01-10 04:52:00,
2013-01-09 20:57:00,44.8,38.1,30.05,West,260,5.0,7.0,76,0.00,,,0.02,0.0,meteohub,2013-01-10 04:57:00,
2013-01-09 21:00:00,44.8,38.1,30.05,West,269,0.0,7.0,76,0.00,,,0.02,0.0,meteohub,2013-01-10 05:00:00,
2013-01-09 21:01:00,44.8,38.1,30.05,West,269,0.0,7.0,76,0.00,,,0.02,0.0,meteohub,2013-01-10 05:01:00,
2013-01-09 21:02:00,44.8,38.1,30.05,West,269,0.0,7.0,76,0.00,,,0.02,0.0,meteohub,2013-01-10 05:02:00,
2013-01-09 21:03:00,44.8,38.1,30.05,West,269,1.0,7.0,76,0.00,,,0.02,0.0,meteohub,2013-01-10 05:03:00,
2013-01-09 21:08:00,44.6,37.9,30.05,West,269,1.0,7.0,76,0.00,,,0.02,0.0,meteohub,2013-01-10 05:08:00,
2013-01-09 21:13:00,44.6,37.9,30.06,West,269,4.0,7.0,76,0.00,,,0.02,0.0,meteohub,2013-01-10 05:13:00,
2013-01-09 21:18:00,44.4,37.8,30.06,West,270,2.0,3.0,76,0.00,,,0.02,0.0,meteohub,2013-01-10 05:18:00,
2013-01-09 21:23:00,44.2,37.9,30.06,West,269,3.0,8.0,77,0.00,,,0.02,0.0,meteohub,2013-01-10 05:23:00,
2013-01-09 21:28:00,44.2,37.9,30.06,West,275,4.0,8.0,77,0.00,,,0.02,0.0,meteohub,2013-01-10 05:28:00,
2013-01-09 21:33:00,44.1,37.8,30.06,West,275,0.0,8.0,77,0.00,,,0.02,0.0,meteohub,2013-01-10 05:33:00,
2013-01-09 21:39:00,43.9,37.6,30.06,West,275,2.0,6.0,77,0.00,,,0.02,0.0,meteohub,2013-01-10 05:39:00,
2013-01-09 21:44:00,43.9,37.6,30.06,West,275,2.0,5.0,77,0.00,,,0.02,0.0,meteohub,2013-01-10 05:44:00,
2013-01-09 21:49:00,43.7,37.4,30.06,West,275,0.0,5.0,77,0.00,,,0.02,0.0,meteohub,2013-01-10 05:49:00,
2013-01-09 21:54:00,43.7,37.4,30.06,West,275,0.0,3.0,77,0.00,,,0.02,0.0,meteohub,2013-01-10 05:54:00,
2013-01-09 21:59:00,43.5,37.6,30.07,West,275,2.0,2.0,78,0.00,,,0.02,0.0,meteohub,2013-01-10 05:59:00,
2013-01-09 22:04:00,43.2,37.2,30.06,West,275,0.0,4.0,78,0.00,,,0.02,0.0,meteohub,2013-01-10 06:04:00,
2013-01-09 22:09:00,43.0,37.4,30.07,West,275,0.0,4.0,79,0.00,,,0.02,0.0,meteohub,2013-01-10 06:09:00,
2013-01-09 22:14:00,42.8,37.2,30.07,West,275,0.0,4.0,79,0.00,,,0.02,0.0,meteohub,2013-01-10 06:14:00,
2013-01-09 22:19:00,42.6,37.0,30.07,West,275,1.0,2.0,79,0.00,,,0.02,0.0,meteohub,2013-01-10 06:19:00,
2013-01-09 22:24:00,42.4,36.9,30.07,West,275,0.0,2.0,79,0.00,,,0.02,0.0,meteohub,2013-01-10 06:24:00,
2013-01-09 22:29:00,42.3,36.7,30.07,West,275,2.0,2.0,80,0.00,,,0.02,0.0,meteohub,2013-01-10 06:29:00,
2013-01-09 22:35:00,42.1,36.5,30.07,West,275,0.0,2.0,80,0.00,,,0.02,0.0,meteohub,2013-01-10 06:35:00,
2013-01-09 22:40:00,41.9,36.7,30.07,West,275,0.0,3.0,81,0.00,,,0.02,0.0,meteohub,2013-01-10 06:40:00,
2013-01-09 22:45:00,41.9,37.0,30.07,West,275,2.0,4.0,82,0.00,,,0.02,0.0,meteohub,2013-01-10 06:45:00,
2013-01-09 22:50:00,41.9,37.0,30.07,West,259,6.0,6.0,82,0.00,,,0.02,0.0,meteohub,2013-01-10 06:50:00,
2013-01-09 22:55:00,41.7,36.9,30.08,West,260,0.0,6.0,82,0.00,,,0.02,0.0,meteohub,2013-01-10 06:55:00,
2013-01-09 23:00:00,41.7,36.9,30.08,West,260,1.0,6.0,82,0.00,,,0.02,0.0,meteohub,2013-01-10 07:00:00,
2013-01-09 23:05:00,41.5,36.7,30.07,West,260,0.0,6.0,82,0.00,,,0.02,0.0,meteohub,2013-01-10 07:05:00,
2013-01-09 23:11:00,41.4,36.5,30.07,West,260,0.0,2.0,82,0.00,,,0.02,0.0,meteohub,2013-01-10 07:11:00,
2013-01-09 23:16:00,41.4,36.5,30.07,WNW,286,0.0,1.0,82,0.00,,,0.02,0.0,meteohub,2013-01-10 07:16:00,
2013-01-09 23:21:00,41.2,36.3,30.08,WNW,286,0.0,3.0,82,0.00,,,0.02,0.0,meteohub,2013-01-10 07:21:00,
2013-01-09 23:26:00,41.2,36.7,30.08,WNW,286,0.0,3.0,83,0.00,,,0.02,0.0,meteohub,2013-01-10 07:26:00,
2013-01-09 23:31:00,41.2,36.3,30.08,WNW,286,0.0,3.0,82,0.00,,,0.02,0.0,meteohub,2013-01-10 07:31:00,
2013-01-09 23:36:00,39.7,35.0,30.06,WNW,288,0.0,2.0,82,0.00,,,0.03,0,weatherlink.com 1.10,2013-01-10 07:36:00,
2013-01-09 23:41:00,41.2,36.3,30.08,WNW,302,0.0,2.0,82,0.00,,,0.02,0.0,meteohub,2013-01-10 07:41:00,
2013-01-09 23:46:00,41.2,36.7,30.08,WNW,282,2.0,2.0,83,0.00,,,0.02,0.0,meteohub,2013-01-10 07:46:00,
2013-01-09 23:51:00,41.4,36.9,30.08,WNW,290,1.0,4.0,83,0.00,,,0.02,0.0,meteohub,2013-01-10 07:51:00,
2013-01-09 23:56:00,41.4,36.9,30.08,WNW,289,0.0,5.0,83,0.00,,,0.02,0.0,meteohub,2013-01-10 07:56:00,